createdAt,value
2023-05-12T00:00:58.394Z,17.96
2023-05-12T00:06:03.754Z,17.84
2023-05-12T00:11:05.671Z,17.70
2023-05-12T00:16:07.758Z,17.79
2023-05-12T00:21:09.694Z,17.81
2023-05-12T00:26:11.558Z,17.75
2023-05-12T00:31:14.433Z,17.79
2023-05-12T00:36:16.374Z,17.80
2023-05-12T00:41:18.522Z,17.75
2023-05-12T00:46:21.404Z,17.67
2023-05-12T00:51:24.035Z,17.59
2023-05-12T00:56:26.069Z,17.59
2023-05-12T01:01:28.380Z,17.52
2023-05-12T01:06:39.924Z,17.57
2023-05-12T01:11:43.342Z,17.59
2023-05-12T01:16:53.186Z,17.74
2023-05-12T01:21:55.820Z,17.68
2023-05-12T01:26:58.697Z,17.46
2023-05-12T01:32:00.789Z,17.41
2023-05-12T01:37:02.830Z,17.36
2023-05-12T01:42:05.950Z,17.31
2023-05-12T01:47:10.061Z,17.31
2023-05-12T01:52:13.990Z,17.29
2023-05-12T01:57:16.194Z,17.32
2023-05-12T02:02:18.564Z,17.32
2023-05-12T02:07:20.503Z,17.31
2023-05-12T02:12:22.820Z,17.25
2023-05-12T02:17:25.252Z,17.23
2023-05-12T02:22:27.375Z,17.18
2023-05-12T02:27:32.552Z,17.33
2023-05-12T02:32:34.779Z,17.30
2023-05-12T02:37:36.919Z,17.27
2023-05-12T02:42:40.445Z,17.22
2023-05-12T02:47:42.468Z,17.21
2023-05-12T02:52:45.090Z,17.20
2023-05-12T02:57:47.256Z,17.16
2023-05-12T03:02:49.141Z,17.16
2023-05-12T03:07:51.124Z,17.19
2023-05-12T03:12:52.962Z,17.18
2023-05-12T03:17:55.718Z,17.16
2023-05-12T03:22:57.878Z,17.10
2023-05-12T03:27:59.952Z,17.04
2023-05-12T03:33:01.989Z,16.98
2023-05-12T03:38:04.998Z,16.97
2023-05-12T03:43:06.882Z,17.01
2023-05-12T03:48:08.863Z,17.06
2023-05-12T03:53:10.905Z,17.08
2023-05-12T03:58:12.818Z,17.06
2023-05-12T04:03:15.615Z,17.02
2023-05-12T04:08:17.579Z,16.87
2023-05-12T04:13:19.445Z,16.83
2023-05-12T04:18:21.441Z,16.78
2023-05-12T04:23:23.690Z,16.83
2023-05-12T04:28:25.646Z,16.88
2023-05-12T04:33:28.314Z,17.02
2023-05-12T04:38:30.533Z,16.96
2023-05-12T04:48:42.138Z,16.94
2023-05-12T04:53:44.118Z,16.96
2023-05-12T04:58:48.353Z,17.00
2023-05-12T05:03:50.538Z,17.06
2023-05-12T05:08:53.282Z,17.15
2023-05-12T05:13:55.217Z,17.17
2023-05-12T05:18:58.571Z,17.18
2023-05-12T05:24:00.876Z,17.25
2023-05-12T05:29:04.832Z,17.32
2023-05-12T05:34:07.876Z,17.39
2023-05-12T05:39:10.554Z,17.47
2023-05-12T05:44:12.748Z,17.52
2023-05-12T05:49:14.955Z,17.56
2023-05-12T05:54:17.281Z,17.62
2023-05-12T05:59:20.524Z,17.69
2023-05-12T06:04:23.449Z,17.73
2023-05-12T06:09:25.715Z,17.73
2023-05-12T06:14:27.665Z,17.84
2023-05-12T06:19:30.317Z,17.92
2023-05-12T06:24:32.153Z,17.99
2023-05-12T06:29:34.316Z,18.02
2023-05-12T06:34:36.211Z,18.01
2023-05-12T06:39:38.418Z,18.14
2023-05-12T06:44:42.023Z,18.39
2023-05-12T06:49:44.406Z,18.60
2023-05-12T06:54:51.051Z,18.81
2023-05-12T06:59:54.010Z,19.02
2023-05-12T07:04:56.836Z,19.18
2023-05-12T07:09:59.168Z,19.26
2023-05-12T07:15:02.137Z,19.39
2023-05-12T07:20:05.922Z,19.63
2023-05-12T07:25:08.313Z,19.92
2023-05-12T07:30:11.328Z,20.16
2023-05-12T07:35:13.192Z,20.41
2023-05-12T07:40:15.533Z,20.59
2023-05-12T07:45:23.080Z,20.83
2023-05-12T07:50:25.030Z,21.04
2023-05-12T07:55:26.942Z,21.20
2023-05-12T08:00:29.171Z,21.30
2023-05-12T08:05:31.390Z,21.28
2023-05-12T08:10:33.244Z,21.27
2023-05-12T08:15:35.218Z,21.33
2023-05-12T08:20:38.669Z,21.62
2023-05-12T08:25:41.353Z,21.92
2023-05-12T08:30:45.257Z,22.25
2023-05-12T08:35:47.203Z,22.55
2023-05-12T08:41:10.999Z,22.81
2023-05-12T08:46:13.550Z,22.93
2023-05-12T08:51:15.924Z,23.23
2023-05-12T09:01:26.699Z,23.54
2023-05-12T09:06:29.820Z,23.55
2023-05-12T09:11:32.528Z,23.43
2023-05-12T09:16:40.051Z,23.61
2023-05-12T09:21:42.661Z,23.79
2023-05-12T09:26:54.589Z,23.97
2023-05-12T09:32:02.562Z,23.99
2023-05-12T09:37:06.958Z,23.89
2023-05-12T09:42:13.286Z,23.91
2023-05-12T09:47:16.389Z,23.90
2023-05-12T09:52:23.026Z,23.94
2023-05-12T09:57:26.626Z,23.98
2023-05-12T10:02:28.701Z,24.05
2023-05-12T10:07:31.436Z,24.03
2023-05-12T10:12:35.698Z,24.17
2023-05-12T10:17:37.969Z,24.32
2023-05-12T10:22:41.127Z,24.54
2023-05-12T10:27:44.420Z,24.61
2023-05-12T10:32:47.044Z,24.62
2023-05-12T10:37:49.788Z,24.83
2023-05-12T10:42:52.873Z,24.98
2023-05-12T10:48:06.199Z,25.01
2023-05-12T10:53:11.458Z,24.98
2023-05-12T10:58:13.659Z,24.92
2023-05-12T11:03:18.890Z,25.06
2023-05-12T11:13:25.323Z,24.98
2023-05-12T11:18:27.241Z,24.81
2023-05-12T11:23:29.685Z,24.89
2023-05-12T11:28:41.370Z,24.81
2023-05-12T11:33:43.317Z,24.71
2023-05-12T11:38:51.741Z,24.53
2023-05-12T11:43:53.657Z,24.48
2023-05-12T11:48:59.899Z,24.41
2023-05-12T11:54:01.948Z,24.40
2023-05-12T11:59:03.834Z,24.55
2023-05-12T12:04:06.342Z,24.96
2023-05-12T12:09:08.726Z,25.47
2023-05-12T12:14:10.606Z,25.77
2023-05-12T12:19:12.567Z,25.75
2023-05-12T12:24:14.733Z,25.50
2023-05-12T12:29:17.342Z,25.23
2023-05-12T12:34:19.390Z,25.05
2023-05-12T12:39:23.290Z,24.87
2023-05-12T12:44:25.196Z,24.67
2023-05-12T12:49:27.031Z,24.53
2023-05-12T12:54:29.480Z,24.40
2023-05-12T12:59:31.327Z,24.21
2023-05-12T13:04:33.739Z,24.04
2023-05-12T13:09:35.626Z,23.92
2023-05-12T13:14:37.467Z,23.88
2023-05-12T13:19:39.328Z,23.85
2023-05-12T13:24:41.545Z,23.80
2023-05-12T13:29:47.365Z,23.73
2023-05-12T13:34:49.317Z,23.70
2023-05-12T13:39:51.271Z,23.68
2023-05-12T13:44:53.127Z,23.66
2023-05-12T13:49:56.610Z,23.60
2023-05-12T13:54:58.512Z,23.52
2023-05-12T14:00:00.895Z,23.50
2023-05-12T14:05:02.776Z,23.46
2023-05-12T14:10:04.926Z,23.51
2023-05-12T14:15:23.546Z,23.57
2023-05-12T14:20:29.860Z,23.58
2023-05-12T14:25:31.832Z,23.46
2023-05-12T14:30:35.332Z,23.42
2023-05-12T14:35:37.265Z,23.05
2023-05-12T14:40:40.400Z,22.76
2023-05-12T14:45:42.516Z,22.57
2023-05-12T14:50:44.352Z,22.34
2023-05-12T14:55:46.343Z,22.11
2023-05-12T15:00:48.684Z,21.91
2023-05-12T15:10:55.480Z,21.71
2023-05-12T15:15:57.367Z,21.76
2023-05-12T15:20:59.282Z,22.02
2023-05-12T15:26:15.416Z,22.21
2023-05-12T15:31:22.952Z,22.39
2023-05-12T15:36:24.864Z,22.48
2023-05-12T15:41:26.788Z,22.47
2023-05-12T15:46:29.006Z,22.53
2023-05-12T15:51:31.491Z,22.49
2023-05-12T15:56:33.308Z,22.52
2023-05-12T16:01:35.393Z,22.59
2023-05-12T16:06:37.216Z,22.66
2023-05-12T16:11:39.649Z,22.71
2023-05-12T16:16:48.355Z,22.57
2023-05-12T16:21:50.341Z,22.28
2023-05-12T16:26:52.204Z,22.09
2023-05-12T16:31:54.116Z,21.86
2023-05-12T16:36:55.955Z,21.57
2023-05-12T16:41:58.427Z,21.50
2023-05-12T16:47:00.235Z,21.49
2023-05-12T16:52:02.232Z,21.27
2023-05-12T16:57:04.243Z,20.97
2023-05-12T17:02:06.443Z,20.51
2023-05-12T17:07:08.633Z,20.27
2023-05-12T17:12:11.097Z,20.15
2023-05-12T17:17:13.370Z,20.06
2023-05-12T17:22:16.050Z,20.10
2023-05-12T17:27:18.359Z,19.76
2023-05-12T17:32:20.314Z,19.87
2023-05-12T17:37:22.804Z,20.01
2023-05-12T17:42:24.787Z,20.15
2023-05-12T17:47:30.254Z,20.26
2023-05-12T17:52:32.722Z,20.29
2023-05-12T17:57:34.798Z,20.37
2023-05-12T18:02:38.331Z,20.38
2023-05-12T18:07:40.404Z,20.40
2023-05-12T18:12:42.269Z,20.40
2023-05-12T18:17:44.247Z,20.44
2023-05-12T18:22:46.491Z,20.44
2023-05-12T18:27:49.033Z,20.42
2023-05-12T18:32:51.140Z,20.43
2023-05-12T18:37:53.259Z,20.45
2023-05-12T18:42:55.087Z,20.44
2023-05-12T18:47:57.043Z,20.38
2023-05-12T18:52:58.961Z,20.27
2023-05-12T18:58:00.792Z,20.17
2023-05-12T19:03:03.191Z,20.09
2023-05-12T19:08:05.723Z,19.94
2023-05-12T19:13:08.175Z,19.81
2023-05-12T19:18:10.078Z,19.58
2023-05-12T19:23:12.234Z,19.42
2023-05-12T19:28:14.076Z,19.37
2023-05-12T19:33:17.334Z,19.27
2023-05-12T19:38:19.655Z,19.18
2023-05-12T19:43:21.736Z,19.19
2023-05-12T19:48:23.590Z,19.18
2023-05-12T19:53:25.661Z,19.08
2023-05-12T19:58:27.622Z,18.90
2023-05-12T20:03:29.848Z,18.79
2023-05-12T20:08:32.492Z,18.72
2023-05-12T20:13:34.431Z,18.58
2023-05-12T20:18:36.356Z,18.37
2023-05-12T20:23:38.336Z,18.23
2023-05-12T20:28:40.816Z,18.19
2023-05-12T20:33:42.753Z,18.13
2023-05-12T20:38:44.628Z,18.01
2023-05-12T20:43:46.538Z,17.86
2023-05-12T20:48:48.523Z,17.78
2023-05-12T20:53:50.710Z,17.62
2023-05-12T20:58:52.879Z,17.25
2023-05-12T21:03:54.746Z,17.16
2023-05-12T21:08:56.593Z,16.91
2023-05-12T21:13:58.476Z,16.89
2023-05-12T21:19:00.327Z,17.00
2023-05-12T21:24:02.215Z,17.06
2023-05-12T21:29:04.363Z,17.12
2023-05-12T21:34:06.159Z,17.10
2023-05-12T21:39:08.102Z,17.03
2023-05-12T21:44:11.192Z,17.13
2023-05-12T21:49:13.936Z,17.15
2023-05-12T21:54:15.831Z,17.04
2023-05-12T21:59:17.721Z,16.69
2023-05-12T22:04:19.994Z,16.70
2023-05-12T22:09:22.314Z,16.72
2023-05-12T22:14:24.473Z,16.67
2023-05-12T22:19:26.656Z,16.64
2023-05-12T22:24:28.576Z,16.51
2023-05-12T22:29:30.497Z,16.25
2023-05-12T22:34:32.356Z,16.16
2023-05-12T22:39:34.205Z,16.17
2023-05-12T22:44:36.061Z,16.14
2023-05-12T22:49:38.043Z,16.14
2023-05-12T22:54:39.891Z,16.16
2023-05-12T22:59:41.720Z,16.28
2023-05-12T23:04:44.049Z,16.32
2023-05-12T23:09:45.966Z,16.28
2023-05-12T23:14:47.935Z,16.13
2023-05-12T23:19:50.202Z,16.00
2023-05-12T23:24:52.704Z,15.78
2023-05-12T23:29:54.539Z,15.60
2023-05-12T23:34:56.545Z,15.47
2023-05-12T23:39:58.427Z,15.53
2023-05-12T23:45:00.314Z,15.66
2023-05-12T23:50:02.241Z,15.73
2023-05-12T23:55:04.328Z,15.74
